This is the latest recevied weather packets stored in our database for station/object WX4HP-13. If no packets are shown the sender has not sent any weather packets the latest 1 day(s).
| Time | Temp. | Humidity | Pressure | Rain* | Wind** | Luminosity | Snow |
|---|---|---|---|---|---|---|---|
| 1778021097 | 21.67° C | 59% | 1011.4 hPa | 0 mm | 0 m/s | - | - |
| 1778020797 | 21.67° C | 58% | 1011.3 hPa | 0 mm | 0 m/s | - | - |
| 1778020497 | 21.67° C | 58% | 1011.3 hPa | 0 mm | 0.45 m/s, 193° | - | - |
| 1778019897 | 21.67° C | 57% | 1011.2 hPa | 0 mm | 0.45 m/s, 188° | - | - |
| 1778019597 | 22.22° C | 56% | 1011.2 hPa | 0 mm | 0.45 m/s, 220° | - | - |
| 1778019297 | 22.22° C | 56% | 1011.1 hPa | 0 mm | 0 m/s | - | - |
| 1778018997 | 22.22° C | 56% | 1011.2 hPa | 0 mm | 0 m/s | - | - |
| 1778018697 | 22.78° C | 54% | 1011 hPa | 0 mm | 0.89 m/s, 225° | - | - |
| 1778018397 | 22.78° C | 54% | 1010.9 hPa | 0 mm | 0.89 m/s, 225° | - | - |
| 1778018100 | 22.78° C | 54% | 1011 hPa | 0 mm | 0 m/s | - | - |
| 1778017797 | 22.78° C | 53% | 1011 hPa | 0 mm | 0.89 m/s, 234° | - | - |
| 1778017497 | 22.78° C | 54% | 1011 hPa | 0 mm | 0.45 m/s, 225° | - | - |
| 1778017197 | 22.78° C | 52% | 1011.1 hPa | 0 mm | 0.45 m/s, 216° | - | - |
| 1778016897 | 22.78° C | 51% | 1010.9 hPa | 0 mm | 0.89 m/s, 218° | - | - |
| 1778016597 | 23.33° C | 50% | 1010.9 hPa | 0 mm | 0.89 m/s, 247° | - | - |
| 1778016297 | 23.33° C | 51% | 1011 hPa | 0 mm | 0.45 m/s, 239° | - | - |
| 1778015997 | 23.89° C | 50% | 1010.7 hPa | 0 mm | 0.89 m/s, 219° | - | - |
| 1778015697 | 23.89° C | 51% | 1010.7 hPa | 0 mm | 0.89 m/s, 142° | - | - |
| 1778015397 | 23.89° C | 51% | 1010.7 hPa | 0 mm | 0.89 m/s, 110° | - | - |
| 1778015097 | 23.89° C | 53% | 1010.6 hPa | 0 mm | 0.45 m/s, 139° | - | - |
| 1778014797 | 22.78° C | 55% | 1010.7 hPa | 0 mm | 0 m/s | - | - |
| 1778014497 | 22.22° C | 54% | 1010.9 hPa | 0 mm | 0.45 m/s, 153° | - | - |
| 1778014197 | 21.67° C | 56% | 1010.9 hPa | 0 mm | 0.45 m/s, 143° | - | - |
| 1778013897 | 21.67° C | 58% | 1010.8 hPa | 0 mm | 0 m/s | - | - |
| 1778013597 | 21.11° C | 58% | 1010.8 hPa | 0 mm | 0.45 m/s, 218° | - | - |
* Rain latest hour (hover to see other rain measurements)
** Current wind speed in m/s (hover to see current wind gust speed)